sensor_id;sensor_type;location;lat;lon;timestamp;pressure;altitude;pressure_sealevel;temperature;humidity
22241;BME280;11289;52.524;13.694;2023-03-03T00:00:56;101701.00;;;0.73;79.82
22241;BME280;11289;52.524;13.694;2023-03-03T00:03:24;101700.88;;;0.68;79.70
22241;BME280;11289;52.524;13.694;2023-03-03T00:05:50;101714.53;;;0.68;80.18
22241;BME280;11289;52.524;13.694;2023-03-03T00:08:17;101704.09;;;0.65;80.24
22241;BME280;11289;52.524;13.694;2023-03-03T00:10:43;101708.84;;;0.58;80.86
22241;BME280;11289;52.524;13.694;2023-03-03T00:13:18;101703.59;;;0.44;81.41
22241;BME280;11289;52.524;13.694;2023-03-03T00:15:43;101690.66;;;0.28;81.80
22241;BME280;11289;52.524;13.694;2023-03-03T00:20:47;101706.66;;;0.12;83.17
22241;BME280;11289;52.524;13.694;2023-03-03T00:25:58;101701.16;;;0.01;84.32
22241;BME280;11289;52.524;13.694;2023-03-03T00:28:31;101685.75;;;0.06;84.41
22241;BME280;11289;52.524;13.694;2023-03-03T00:31:13;101676.00;;;0.10;84.16
22241;BME280;11289;52.524;13.694;2023-03-03T00:33:51;101669.59;;;0.16;83.81
22241;BME280;11289;52.524;13.694;2023-03-03T00:36:38;101675.56;;;0.25;83.73
22241;BME280;11289;52.524;13.694;2023-03-03T00:41:45;101683.03;;;0.30;83.10
22241;BME280;11289;52.524;13.694;2023-03-03T00:47:21;101674.13;;;0.23;83.49
22241;BME280;11289;52.524;13.694;2023-03-03T00:49:48;101653.56;;;0.08;83.63
22241;BME280;11289;52.524;13.694;2023-03-03T00:52:16;101658.44;;;0.06;83.86
22241;BME280;11289;52.524;13.694;2023-03-03T00:54:41;101670.78;;;0.09;84.30
22241;BME280;11289;52.524;13.694;2023-03-03T00:57:07;101667.47;;;0.19;83.78
22241;BME280;11289;52.524;13.694;2023-03-03T00:59:32;101666.53;;;0.25;83.48
22241;BME280;11289;52.524;13.694;2023-03-03T01:01:58;101638.13;;;0.14;83.19
22241;BME280;11289;52.524;13.694;2023-03-03T01:04:23;101640.03;;;0.13;83.65
22241;BME280;11289;52.524;13.694;2023-03-03T01:06:48;101647.53;;;0.30;83.27
22241;BME280;11289;52.524;13.694;2023-03-03T01:09:14;101658.34;;;0.37;82.95
22241;BME280;11289;52.524;13.694;2023-03-03T01:11:39;101656.09;;;0.33;82.56
22241;BME280;11289;52.524;13.694;2023-03-03T01:14:05;101668.19;;;0.38;82.89
22241;BME280;11289;52.524;13.694;2023-03-03T01:16:31;101670.69;;;0.39;82.57
22241;BME280;11289;52.524;13.694;2023-03-03T01:18:56;101655.38;;;0.38;82.57
22241;BME280;11289;52.524;13.694;2023-03-03T01:21:22;101652.66;;;0.38;82.16
22241;BME280;11289;52.524;13.694;2023-03-03T01:23:47;101656.09;;;0.45;82.39
22241;BME280;11289;52.524;13.694;2023-03-03T01:26:12;101651.78;;;0.38;81.98
22241;BME280;11289;52.524;13.694;2023-03-03T01:28:38;101651.44;;;0.46;82.36
22241;BME280;11289;52.524;13.694;2023-03-03T01:31:04;101652.28;;;0.46;82.35
22241;BME280;11289;52.524;13.694;2023-03-03T01:33:30;101639.69;;;0.45;82.03
22241;BME280;11289;52.524;13.694;2023-03-03T01:35:56;101630.88;;;0.43;82.14
22241;BME280;11289;52.524;13.694;2023-03-03T01:38:21;101636.09;;;0.45;82.06
22241;BME280;11289;52.524;13.694;2023-03-03T01:40:54;101632.91;;;0.48;82.18
22241;BME280;11289;52.524;13.694;2023-03-03T01:43:21;101640.03;;;0.49;81.88
22241;BME280;11289;52.524;13.694;2023-03-03T01:48:17;101629.25;;;0.42;81.86
22241;BME280;11289;52.524;13.694;2023-03-03T01:50:53;101626.84;;;0.46;82.16
22241;BME280;11289;52.524;13.694;2023-03-03T01:53:44;101624.59;;;0.43;82.21
22241;BME280;11289;52.524;13.694;2023-03-03T01:56:10;101625.91;;;0.40;82.25
22241;BME280;11289;52.524;13.694;2023-03-03T01:58:42;101626.75;;;0.41;82.42
22241;BME280;11289;52.524;13.694;2023-03-03T02:01:10;101630.53;;;0.40;82.49
22241;BME280;11289;52.524;13.694;2023-03-03T02:03:37;101617.84;;;0.33;82.45
22241;BME280;11289;52.524;13.694;2023-03-03T02:06:07;101626.63;;;0.36;82.30
22241;BME280;11289;52.524;13.694;2023-03-03T02:08:39;101633.16;;;0.34;82.56
22241;BME280;11289;52.524;13.694;2023-03-03T02:11:06;101650.72;;;0.39;82.51
22241;BME280;11289;52.524;13.694;2023-03-03T02:13:32;101640.53;;;0.34;82.39
22241;BME280;11289;52.524;13.694;2023-03-03T02:15:58;101631.47;;;0.22;82.57
22241;BME280;11289;52.524;13.694;2023-03-03T02:18:24;101637.78;;;0.34;82.78
22241;BME280;11289;52.524;13.694;2023-03-03T02:21:11;101636.72;;;0.35;82.51
22241;BME280;11289;52.524;13.694;2023-03-03T02:26:34;101647.75;;;0.40;82.61
22241;BME280;11289;52.524;13.694;2023-03-03T02:29:01;101649.06;;;0.38;82.76
22241;BME280;11289;52.524;13.694;2023-03-03T02:31:29;101643.00;;;0.36;82.75
22241;BME280;11289;52.524;13.694;2023-03-03T02:33:56;101644.19;;;0.40;82.90
22241;BME280;11289;52.524;13.694;2023-03-03T02:36:33;101627.69;;;0.34;82.98
22241;BME280;11289;52.524;13.694;2023-03-03T02:39:19;101635.41;;;0.38;82.87
22241;BME280;11289;52.524;13.694;2023-03-03T02:44:31;101636.97;;;0.33;82.87
22241;BME280;11289;52.524;13.694;2023-03-03T02:46:57;101636.00;;;0.40;82.89
22241;BME280;11289;52.524;13.694;2023-03-03T02:49:31;101624.38;;;0.32;83.09
22241;BME280;11289;52.524;13.694;2023-03-03T02:51:57;101637.78;;;0.34;83.18
22241;BME280;11289;52.524;13.694;2023-03-03T02:54:24;101629.81;;;0.32;83.09
22241;BME280;11289;52.524;13.694;2023-03-03T02:56:50;101632.31;;;0.34;83.33
22241;BME280;11289;52.524;13.694;2023-03-03T02:59:15;101636.34;;;0.31;83.29
22241;BME280;11289;52.524;13.694;2023-03-03T03:01:41;101631.03;;;0.37;83.36
22241;BME280;11289;52.524;13.694;2023-03-03T03:04:09;101638.50;;;0.41;83.20
22241;BME280;11289;52.524;13.694;2023-03-03T03:06:35;101628.88;;;0.39;82.66
22241;BME280;11289;52.524;13.694;2023-03-03T03:09:01;101639.56;;;0.40;83.35
22241;BME280;11289;52.524;13.694;2023-03-03T03:11:27;101637.19;;;0.44;83.11
22241;BME280;11289;52.524;13.694;2023-03-03T03:13:52;101654.41;;;0.44;83.39
22241;BME280;11289;52.524;13.694;2023-03-03T03:16:18;101655.25;;;0.45;83.36
22241;BME280;11289;52.524;13.694;2023-03-03T03:18:44;101662.63;;;0.44;83.14
22241;BME280;11289;52.524;13.694;2023-03-03T03:21:11;101658.69;;;0.40;83.58
22241;BME280;11289;52.524;13.694;2023-03-03T03:23:37;101666.41;;;0.43;83.70
22241;BME280;11289;52.524;13.694;2023-03-03T03:26:03;101666.16;;;0.33;83.58
22241;BME280;11289;52.524;13.694;2023-03-03T03:28:28;101660.38;;;0.29;83.91
22241;BME280;11289;52.524;13.694;2023-03-03T03:30:54;101663.81;;;0.25;84.13
22241;BME280;11289;52.524;13.694;2023-03-03T03:33:19;101656.28;;;0.20;84.19
22241;BME280;11289;52.524;13.694;2023-03-03T03:35:45;101659.41;;;0.24;84.04
22241;BME280;11289;52.524;13.694;2023-03-03T03:38:12;101671.28;;;0.29;84.24
22241;BME280;11289;52.524;13.694;2023-03-03T03:40:39;101670.19;;;0.30;84.22
22241;BME280;11289;52.524;13.694;2023-03-03T03:43:04;101663.56;;;0.26;84.08
22241;BME280;11289;52.524;13.694;2023-03-03T03:45:30;101631.94;;;0.19;84.24
22241;BME280;11289;52.524;13.694;2023-03-03T03:47:55;101631.22;;;0.23;83.81
22241;BME280;11289;52.524;13.694;2023-03-03T03:50:21;101647.91;;;0.33;84.07
22241;BME280;11289;52.524;13.694;2023-03-03T03:52:46;101645.97;;;0.34;84.06
22241;BME280;11289;52.524;13.694;2023-03-03T03:55:12;101643.72;;;0.31;83.56
22241;BME280;11289;52.524;13.694;2023-03-03T03:57:37;101640.53;;;0.34;83.73
22241;BME280;11289;52.524;13.694;2023-03-03T04:00:06;101630.41;;;0.34;83.66
22241;BME280;11289;52.524;13.694;2023-03-03T04:02:33;101618.41;;;0.36;83.56
22241;BME280;11289;52.524;13.694;2023-03-03T04:04:58;101634.81;;;0.36;83.70
22241;BME280;11289;52.524;13.694;2023-03-03T04:07:24;101615.78;;;0.29;83.90
22241;BME280;11289;52.524;13.694;2023-03-03T04:09:49;101607.25;;;0.25;83.69
22241;BME280;11289;52.524;13.694;2023-03-03T04:12:15;101626.03;;;0.33;83.79
22241;BME280;11289;52.524;13.694;2023-03-03T04:14:40;101618.91;;;0.32;84.04
22241;BME280;11289;52.524;13.694;2023-03-03T04:17:05;101613.06;;;0.29;84.19
22241;BME280;11289;52.524;13.694;2023-03-03T04:19:31;101611.53;;;0.33;83.91
22241;BME280;11289;52.524;13.694;2023-03-03T04:21:56;101627.69;;;0.34;83.76
22241;BME280;11289;52.524;13.694;2023-03-03T04:24:21;101626.03;;;0.33;83.55
22241;BME280;11289;52.524;13.694;2023-03-03T04:26:47;101616.41;;;0.31;83.89
22241;BME280;11289;52.524;13.694;2023-03-03T04:29:12;101620.91;;;0.37;83.44
22241;BME280;11289;52.524;13.694;2023-03-03T04:31:37;101626.97;;;0.39;83.38
22241;BME280;11289;52.524;13.694;2023-03-03T04:34:03;101601.22;;;0.35;83.27
22241;BME280;11289;52.524;13.694;2023-03-03T04:36:28;101610.56;;;0.39;83.62
22241;BME280;11289;52.524;13.694;2023-03-03T04:38:53;101609.41;;;0.35;83.45
22241;BME280;11289;52.524;13.694;2023-03-03T04:41:19;101613.78;;;0.36;83.42
22241;BME280;11289;52.524;13.694;2023-03-03T04:43:44;101609.50;;;0.28;83.55
22241;BME280;11289;52.524;13.694;2023-03-03T04:46:10;101622.44;;;0.33;83.79
22241;BME280;11289;52.524;13.694;2023-03-03T04:48:35;101613.53;;;0.26;83.65
22241;BME280;11289;52.524;13.694;2023-03-03T04:51:00;101613.53;;;0.26;83.36
22241;BME280;11289;52.524;13.694;2023-03-03T04:53:26;101616.88;;;0.28;83.78
22241;BME280;11289;52.524;13.694;2023-03-03T04:55:52;101617.47;;;0.30;83.58
22241;BME280;11289;52.524;13.694;2023-03-03T04:58:18;101621.50;;;0.27;83.76
22241;BME280;11289;52.524;13.694;2023-03-03T05:00:46;101602.13;;;0.17;83.40
22241;BME280;11289;52.524;13.694;2023-03-03T05:03:12;101608.66;;;0.16;83.52
22241;BME280;11289;52.524;13.694;2023-03-03T05:05:37;101613.44;;;0.21;83.42
22241;BME280;11289;52.524;13.694;2023-03-03T05:08:03;101615.31;;;0.20;83.56
22241;BME280;11289;52.524;13.694;2023-03-03T05:10:28;101623.88;;;0.24;83.40
22241;BME280;11289;52.524;13.694;2023-03-03T05:12:54;101614.03;;;0.23;83.65
22241;BME280;11289;52.524;13.694;2023-03-03T05:15:20;101597.16;;;0.14;83.64
22241;BME280;11289;52.524;13.694;2023-03-03T05:17:45;101599.88;;;0.14;83.55
22241;BME280;11289;52.524;13.694;2023-03-03T05:20:12;101600.59;;;0.09;83.48
22241;BME280;11289;52.524;13.694;2023-03-03T05:22:37;101606.66;;;0.11;83.34
22241;BME280;11289;52.524;13.694;2023-03-03T05:25:03;101604.63;;;0.07;83.50
22241;BME280;11289;52.524;13.694;2023-03-03T05:27:29;101613.19;;;0.10;83.24
22241;BME280;11289;52.524;13.694;2023-03-03T05:29:54;101603.66;;;0.01;83.71
22241;BME280;11289;52.524;13.694;2023-03-03T05:32:20;101603.66;;;0.01;83.70
22241;BME280;11289;52.524;13.694;2023-03-03T05:34:45;101614.00;;;-0.01;83.71
22241;BME280;11289;52.524;13.694;2023-03-03T05:37:10;101619.22;;;0.01;83.43
22241;BME280;11289;52.524;13.694;2023-03-03T05:39:36;101630.41;;;-0.01;83.33
22241;BME280;11289;52.524;13.694;2023-03-03T05:42:01;101636.91;;;-0.02;83.39
22241;BME280;11289;52.524;13.694;2023-03-03T05:44:26;101636.69;;;-0.01;83.95
22241;BME280;11289;52.524;13.694;2023-03-03T05:46:52;101649.38;;;-0.06;83.58
22241;BME280;11289;52.524;13.694;2023-03-03T05:49:17;101624.31;;;-0.15;83.47
22241;BME280;11289;52.524;13.694;2023-03-03T05:51:43;101639.88;;;-0.04;83.82
22241;BME280;11289;52.524;13.694;2023-03-03T05:54:09;101635.47;;;-0.16;83.49
22241;BME280;11289;52.524;13.694;2023-03-03T05:56:34;101642.94;;;-0.12;83.87
22241;BME280;11289;52.524;13.694;2023-03-03T05:58:59;101636.19;;;-0.09;83.98
22241;BME280;11289;52.524;13.694;2023-03-03T06:01:25;101627.38;;;-0.23;83.46
22241;BME280;11289;52.524;13.694;2023-03-03T06:03:51;101635.59;;;-0.11;83.50
22241;BME280;11289;52.524;13.694;2023-03-03T06:06:16;101639.06;;;-0.04;83.54
22241;BME280;11289;52.524;13.694;2023-03-03T06:08:43;101643.91;;;-0.06;83.29
22241;BME280;11289;52.524;13.694;2023-03-03T06:11:08;101638.44;;;-0.06;83.23
22241;BME280;11289;52.524;13.694;2023-03-03T06:13:34;101635.38;;;-0.10;82.85
22241;BME280;11289;52.524;13.694;2023-03-03T06:15:59;101637.72;;;-0.13;82.77
22241;BME280;11289;52.524;13.694;2023-03-03T06:18:24;101630.22;;;-0.18;83.14
22241;BME280;11289;52.524;13.694;2023-03-03T06:20:51;101637.72;;;-0.13;83.33
22241;BME280;11289;52.524;13.694;2023-03-03T06:23:16;101635.38;;;-0.10;82.81
22241;BME280;11289;52.524;13.694;2023-03-03T06:25:42;101645.56;;;-0.05;82.79
22241;BME280;11289;52.524;13.694;2023-03-03T06:28:08;101651.03;;;-0.05;83.04
22241;BME280;11289;52.524;13.694;2023-03-03T06:30:33;101656.50;;;-0.05;82.94
22241;BME280;11289;52.524;13.694;2023-03-03T06:32:59;101658.16;;;-0.04;83.11
22241;BME280;11289;52.524;13.694;2023-03-03T06:35:24;101650.31;;;-0.12;83.24
22241;BME280;11289;52.524;13.694;2023-03-03T06:37:50;101672.31;;;-0.07;82.91
22241;BME280;11289;52.524;13.694;2023-03-03T06:40:15;101668.13;;;-0.10;83.01
22241;BME280;11289;52.524;13.694;2023-03-03T06:42:41;101672.75;;;-0.10;82.93
22241;BME280;11289;52.524;13.694;2023-03-03T06:45:07;101667.75;;;-0.13;82.60
22241;BME280;11289;52.524;13.694;2023-03-03T06:47:32;101664.91;;;-0.19;82.74
22241;BME280;11289;52.524;13.694;2023-03-03T06:49:58;101659.91;;;-0.22;82.49
22241;BME280;11289;52.524;13.694;2023-03-03T06:52:25;101672.00;;;-0.18;83.05
22241;BME280;11289;52.524;13.694;2023-03-03T06:54:59;101682.94;;;-0.18;82.77
22241;BME280;11289;52.524;13.694;2023-03-03T06:59:54;101698.72;;;-0.20;82.81
22241;BME280;11289;52.524;13.694;2023-03-03T07:02:21;101703.94;;;-0.18;82.85
22241;BME280;11289;52.524;13.694;2023-03-03T07:04:47;101697.03;;;-0.21;83.04
22241;BME280;11289;52.524;13.694;2023-03-03T07:07:14;101701.22;;;-0.18;82.84
22241;BME280;11289;52.524;13.694;2023-03-03T07:09:43;101710.47;;;-0.19;82.94
22241;BME280;11289;52.524;13.694;2023-03-03T07:12:11;101701.44;;;-0.20;83.06
22241;BME280;11289;52.524;13.694;2023-03-03T07:14:45;101702.63;;;-0.27;83.09
22241;BME280;11289;52.524;13.694;2023-03-03T07:17:17;101709.38;;;-0.30;83.57
22241;BME280;11289;52.524;13.694;2023-03-03T07:19:43;101703.66;;;-0.28;83.68
22241;BME280;11289;52.524;13.694;2023-03-03T07:22:20;101701.91;;;-0.23;83.72
22241;BME280;11289;52.524;13.694;2023-03-03T07:24:51;101701.91;;;-0.23;83.43
22241;BME280;11289;52.524;13.694;2023-03-03T07:27:23;101712.38;;;-0.20;84.03
22241;BME280;11289;52.524;13.694;2023-03-03T07:29:54;101708.69;;;-0.13;83.47
22241;BME280;11289;52.524;13.694;2023-03-03T07:32:27;101717.28;;;-0.10;83.67
22241;BME280;11289;52.524;13.694;2023-03-03T07:34:55;101714.09;;;-0.07;83.85
22241;BME280;11289;52.524;13.694;2023-03-03T07:37:36;101719.31;;;-0.05;83.19
22241;BME280;11289;52.524;13.694;2023-03-03T07:42:50;101722.28;;;-0.07;83.25
22241;BME280;11289;52.524;13.694;2023-03-03T07:45:27;101724.53;;;-0.04;83.36
22241;BME280;11289;52.524;13.694;2023-03-03T07:50:39;101730.97;;;0.02;83.34
22241;BME280;11289;52.524;13.694;2023-03-03T07:53:12;101731.56;;;0.04;83.00
22241;BME280;11289;52.524;13.694;2023-03-03T07:55:39;101734.91;;;0.06;82.80
22241;BME280;11289;52.524;13.694;2023-03-03T08:03:45;101722.84;;;-0.05;82.37
22241;BME280;11289;52.524;13.694;2023-03-03T08:14:33;101726.69;;;-0.06;82.87
22241;BME280;11289;52.524;13.694;2023-03-03T08:16:59;101733.53;;;-0.03;82.76
22241;BME280;11289;52.524;13.694;2023-03-03T08:19:25;101712.41;;;-0.08;82.92
22241;BME280;11289;52.524;13.694;2023-03-03T08:21:57;101722.63;;;-0.03;83.05
22241;BME280;11289;52.524;13.694;2023-03-03T08:24:24;101719.66;;;-0.02;83.24
22241;BME280;11289;52.524;13.694;2023-03-03T08:26:50;101733.69;;;0.02;82.99
22241;BME280;11289;52.524;13.694;2023-03-03T08:29:15;101728.94;;;-0.03;82.96
22241;BME280;11289;52.524;13.694;2023-03-03T08:31:40;101735.38;;;0.03;83.13
22241;BME280;11289;52.524;13.694;2023-03-03T08:34:06;101720.16;;;0.07;83.39
22241;BME280;11289;52.524;13.694;2023-03-03T08:36:31;101727.56;;;0.19;83.43
22241;BME280;11289;52.524;13.694;2023-03-03T08:38:57;101736.47;;;0.26;83.30
22241;BME280;11289;52.524;13.694;2023-03-03T08:41:22;101730.31;;;0.30;82.74
22241;BME280;11289;52.524;13.694;2023-03-03T08:43:47;101730.22;;;0.37;82.51
22241;BME280;11289;52.524;13.694;2023-03-03T08:46:13;101718.47;;;0.37;82.59
22241;BME280;11289;52.524;13.694;2023-03-03T08:48:38;101733.91;;;0.43;82.20
22241;BME280;11289;52.524;13.694;2023-03-03T08:51:04;101722.25;;;0.36;82.13
22241;BME280;11289;52.524;13.694;2023-03-03T08:53:30;101733.09;;;0.42;82.29
22241;BME280;11289;52.524;13.694;2023-03-03T08:55:57;101739.00;;;0.39;81.75
22241;BME280;11289;52.524;13.694;2023-03-03T08:58:23;101723.78;;;0.31;82.06
22241;BME280;11289;52.524;13.694;2023-03-03T09:00:48;101717.59;;;0.36;82.42
22241;BME280;11289;52.524;13.694;2023-03-03T09:03:14;101724.75;;;0.37;82.32
22241;BME280;11289;52.524;13.694;2023-03-03T09:05:39;101716.06;;;0.40;82.18
22241;BME280;11289;52.524;13.694;2023-03-03T09:08:06;101732.38;;;0.47;82.00
22241;BME280;11289;52.524;13.694;2023-03-03T09:10:31;101721.91;;;0.44;82.01
22241;BME280;11289;52.524;13.694;2023-03-03T09:13:06;101728.34;;;0.49;82.43
22241;BME280;11289;52.524;13.694;2023-03-03T09:15:34;101726.78;;;0.54;82.33
22241;BME280;11289;52.524;13.694;2023-03-03T09:18:20;101727.50;;;0.61;82.21
22241;BME280;11289;52.524;13.694;2023-03-03T09:20:51;101715.38;;;0.57;81.59
22241;BME280;11289;52.524;13.694;2023-03-03T09:23:33;101718.38;;;0.67;81.61
22241;BME280;11289;52.524;13.694;2023-03-03T09:26:17;101715.75;;;0.72;81.73
22241;BME280;11289;52.524;13.694;2023-03-03T09:28:46;101723.59;;;0.80;81.49
22241;BME280;11289;52.524;13.694;2023-03-03T09:31:26;101729.78;;;0.88;81.28
22241;BME280;11289;52.524;13.694;2023-03-03T09:33:55;101721.31;;;0.89;81.01
22241;BME280;11289;52.524;13.694;2023-03-03T09:36:34;101726.41;;;0.97;81.24
22241;BME280;11289;52.524;13.694;2023-03-03T09:39:16;101724.38;;;1.04;80.42
22241;BME280;11289;52.524;13.694;2023-03-03T09:47:23;101734.38;;;1.23;80.10
22241;BME280;11289;52.524;13.694;2023-03-03T09:53:06;101725.19;;;1.29;80.34
22241;BME280;11289;52.524;13.694;2023-03-03T10:01:18;101723.03;;;1.43;79.49
22241;BME280;11289;52.524;13.694;2023-03-03T10:04:00;101718.81;;;1.52;79.64
22241;BME280;11289;52.524;13.694;2023-03-03T10:06:38;101718.69;;;1.59;79.21
22241;BME280;11289;52.524;13.694;2023-03-03T10:15:00;101733.34;;;1.81;78.52
22241;BME280;11289;52.524;13.694;2023-03-03T10:22:55;101712.28;;;1.82;78.28
22241;BME280;11289;52.524;13.694;2023-03-03T10:25:42;101713.06;;;1.94;77.74
22241;BME280;11289;52.524;13.694;2023-03-03T10:33:49;101731.28;;;2.17;77.12
22241;BME280;11289;52.524;13.694;2023-03-03T10:36:26;101733.63;;;2.25;77.23
22241;BME280;11289;52.524;13.694;2023-03-03T10:41:56;101732.47;;;2.38;76.67
22241;BME280;11289;52.524;13.694;2023-03-03T10:47:25;101733.97;;;2.46;76.04
22241;BME280;11289;52.524;13.694;2023-03-03T10:50:32;101727.66;;;2.46;75.59
22241;BME280;11289;52.524;13.694;2023-03-03T10:58:28;101729.31;;;2.64;76.04
22241;BME280;11289;52.524;13.694;2023-03-03T11:01:25;101720.41;;;2.73;75.92
22241;BME280;11289;52.524;13.694;2023-03-03T11:14:44;101726.91;;;3.06;74.36
22241;BME280;11289;52.524;13.694;2023-03-03T11:23:16;101718.06;;;3.21;74.22
22241;BME280;11289;52.524;13.694;2023-03-03T11:28:32;101728.59;;;3.29;73.34
22241;BME280;11289;52.524;13.694;2023-03-03T11:36:54;101721.44;;;3.51;73.00
22241;BME280;11289;52.524;13.694;2023-03-03T11:39:23;101728.72;;;3.62;72.34
22241;BME280;11289;52.524;13.694;2023-03-03T11:42:01;101715.88;;;3.68;71.93
22241;BME280;11289;52.524;13.694;2023-03-03T11:44:34;101707.13;;;3.71;72.23
22241;BME280;11289;52.524;13.694;2023-03-03T11:47:16;101710.53;;;3.83;71.57
22241;BME280;11289;52.524;13.694;2023-03-03T11:53:01;101698.28;;;3.91;71.24
22241;BME280;11289;52.524;13.694;2023-03-03T11:55:38;101707.38;;;3.96;70.82
22241;BME280;11289;52.524;13.694;2023-03-03T11:58:16;101694.75;;;3.95;71.15
22241;BME280;11289;52.524;13.694;2023-03-03T12:00:51;101696.25;;;4.08;70.69
22241;BME280;11289;52.524;13.694;2023-03-03T12:03:24;101692.13;;;4.11;70.45
22241;BME280;11289;52.524;13.694;2023-03-03T12:08:37;101682.16;;;4.05;70.28
22241;BME280;11289;52.524;13.694;2023-03-03T12:11:25;101670.97;;;4.11;70.43
22241;BME280;11289;52.524;13.694;2023-03-03T12:16:56;101664.25;;;4.29;70.11
22241;BME280;11289;52.524;13.694;2023-03-03T12:22:24;101663.38;;;4.24;69.63
22241;BME280;11289;52.524;13.694;2023-03-03T12:28:04;101643.22;;;4.13;69.74
22241;BME280;11289;52.524;13.694;2023-03-03T12:39:11;101637.94;;;4.39;70.23
22241;BME280;11289;52.524;13.694;2023-03-03T12:41:46;101641.84;;;4.48;70.15
22241;BME280;11289;52.524;13.694;2023-03-03T12:44:21;101648.47;;;4.52;69.64
22241;BME280;11289;52.524;13.694;2023-03-03T13:00:29;101636.75;;;4.72;69.10
22241;BME280;11289;52.524;13.694;2023-03-03T13:03:03;101632.34;;;4.76;69.57
22241;BME280;11289;52.524;13.694;2023-03-03T13:10:58;101620.91;;;4.90;68.71
22241;BME280;11289;52.524;13.694;2023-03-03T13:13:31;101613.16;;;4.86;68.16
22241;BME280;11289;52.524;13.694;2023-03-03T13:16:03;101611.78;;;4.84;68.75
22241;BME280;11289;52.524;13.694;2023-03-03T13:18:37;101619.19;;;4.83;69.10
22241;BME280;11289;52.524;13.694;2023-03-03T13:24:10;101613.91;;;4.71;69.99
22241;BME280;11289;52.524;13.694;2023-03-03T13:26:43;101612.81;;;4.78;69.81
22241;BME280;11289;52.524;13.694;2023-03-03T13:29:32;101608.44;;;4.82;69.35
22241;BME280;11289;52.524;13.694;2023-03-03T13:32:09;101612.31;;;4.81;69.26
22241;BME280;11289;52.524;13.694;2023-03-03T13:35:03;101609.56;;;4.86;69.28
22241;BME280;11289;52.524;13.694;2023-03-03T13:37:35;101605.69;;;4.82;69.24
22241;BME280;11289;52.524;13.694;2023-03-03T13:42:44;101589.78;;;4.84;69.47
22241;BME280;11289;52.524;13.694;2023-03-03T13:45:24;101600.81;;;4.99;68.81
22241;BME280;11289;52.524;13.694;2023-03-03T13:48:18;101602.50;;;5.00;68.99
22241;BME280;11289;52.524;13.694;2023-03-03T13:51:22;101577.72;;;5.00;68.74
22241;BME280;11289;52.524;13.694;2023-03-03T13:54:02;101606.16;;;5.21;68.73
22241;BME280;11289;52.524;13.694;2023-03-03T13:59:40;101597.66;;;5.33;68.77
22241;BME280;11289;52.524;13.694;2023-03-03T14:05:10;101606.72;;;5.34;67.46
22241;BME280;11289;52.524;13.694;2023-03-03T14:10:26;101599.84;;;5.41;68.39
22241;BME280;11289;52.524;13.694;2023-03-03T14:13:21;101574.25;;;5.36;68.25
22241;BME280;11289;52.524;13.694;2023-03-03T14:15:55;101569.00;;;5.34;67.80
22241;BME280;11289;52.524;13.694;2023-03-03T14:18:32;101567.06;;;5.40;66.81
22241;BME280;11289;52.524;13.694;2023-03-03T14:21:08;101574.50;;;5.34;66.86
22241;BME280;11289;52.524;13.694;2023-03-03T14:24:10;101575.34;;;5.35;68.06
22241;BME280;11289;52.524;13.694;2023-03-03T14:26:56;101555.22;;;5.34;67.87
22241;BME280;11289;52.524;13.694;2023-03-03T14:31:51;101546.97;;;5.34;68.05
22241;BME280;11289;52.524;13.694;2023-03-03T14:34:39;101548.09;;;5.44;67.90
22241;BME280;11289;52.524;13.694;2023-03-03T14:37:50;101540.09;;;5.47;68.08
22241;BME280;11289;52.524;13.694;2023-03-03T14:40:32;101528.81;;;5.44;67.45
22241;BME280;11289;52.524;13.694;2023-03-03T14:42:59;101542.84;;;5.57;67.45
22241;BME280;11289;52.524;13.694;2023-03-03T14:45:41;101547.81;;;5.55;66.77
22241;BME280;11289;52.524;13.694;2023-03-03T14:48:21;101526.03;;;5.49;67.46
22241;BME280;11289;52.524;13.694;2023-03-03T14:50:51;101527.72;;;5.50;66.86
22241;BME280;11289;52.524;13.694;2023-03-03T14:55:49;101524.94;;;5.50;66.51
22241;BME280;11289;52.524;13.694;2023-03-03T15:01:35;101524.94;;;5.50;67.73
22241;BME280;11289;52.524;13.694;2023-03-03T15:04:25;101508.41;;;5.39;67.55
22241;BME280;11289;52.524;13.694;2023-03-03T15:06:53;101504.81;;;5.34;67.98
22241;BME280;11289;52.524;13.694;2023-03-03T15:09:23;101528.81;;;5.54;67.69
22241;BME280;11289;52.524;13.694;2023-03-03T15:11:55;101519.19;;;5.46;68.04
22241;BME280;11289;52.524;13.694;2023-03-03T15:16:56;101523.84;;;5.61;68.26
22241;BME280;11289;52.524;13.694;2023-03-03T15:19:43;101505.38;;;5.51;67.76
22241;BME280;11289;52.524;13.694;2023-03-03T15:27:28;101505.66;;;5.50;67.76
22241;BME280;11289;52.524;13.694;2023-03-03T15:30:29;101511.44;;;5.43;67.64
22241;BME280;11289;52.524;13.694;2023-03-03T15:33:04;101499.88;;;5.31;68.14
22241;BME280;11289;52.524;13.694;2023-03-03T15:35:51;101505.94;;;5.28;68.04
22241;BME280;11289;52.524;13.694;2023-03-03T15:38:41;101511.69;;;5.21;68.22
22241;BME280;11289;52.524;13.694;2023-03-03T15:41:43;101488.28;;;5.03;68.39
22241;BME280;11289;52.524;13.694;2023-03-03T15:47:16;101500.66;;;5.00;68.92
22241;BME280;11289;52.524;13.694;2023-03-03T15:50:09;101502.81;;;4.93;69.44
22241;BME280;11289;52.524;13.694;2023-03-03T15:55:52;101506.66;;;4.92;69.95
22241;BME280;11289;52.524;13.694;2023-03-03T16:03:35;101483.50;;;4.78;70.05
22241;BME280;11289;52.524;13.694;2023-03-03T16:06:14;101490.13;;;4.77;70.04
22241;BME280;11289;52.524;13.694;2023-03-03T16:08:55;101484.56;;;4.61;70.21
22241;BME280;11289;52.524;13.694;2023-03-03T16:16:50;101486.19;;;4.52;70.77
22241;BME280;11289;52.524;13.694;2023-03-03T16:22:52;101483.97;;;4.49;70.97
22241;BME280;11289;52.524;13.694;2023-03-03T16:27:55;101485.03;;;4.43;71.17
22241;BME280;11289;52.524;13.694;2023-03-03T16:30:47;101483.09;;;4.33;71.62